Time;durP1;ratioP1;P1;durP2;ratioP2;P2;SDS_P1;SDS_P2;PMS_P1;PMS_P2;Temp;Humidity;BMP_temperature;BMP_pressure;BME280_temperature;BME280_humidity;BME280_pressure;Samples;Min_cycle;Max_cycle;Signal;HPM_P1;HPM_P2
2022/12/27 00:01:51;;;;;;;13.18;3.63;;;;;;;;;;5006497;28;20071;-76
2022/12/27 00:04:16;;;;;;;6.70;3.10;;;;;;;;;;5006998;28;20862;-76
2022/12/27 00:06:42;;;;;;;8.77;3.08;;;;;;;;;;5006979;28;20078;-75
2022/12/27 00:09:07;;;;;;;10.00;3.72;;;;;;;;;;5003131;28;20021;-76
2022/12/27 00:11:33;;;;;;;11.00;4.00;;;;;;;;;;5005525;28;20076;-77
2022/12/27 00:13:59;;;;;;;8.60;4.05;;;;;;;;;;5001934;28;20071;-76
2022/12/27 00:16:24;;;;;;;8.68;3.20;;;;;;;;;;5002823;28;20123;-76
2022/12/27 00:18:51;;;;;;;8.55;3.40;;;;;;;;;;5005965;28;20874;-77
2022/12/27 00:21:17;;;;;;;11.20;3.90;;;;;;;;;;5001938;28;20036;-77
2022/12/27 00:23:43;;;;;;;13.27;3.42;;;;;;;;;;5006486;28;20017;-77
2022/12/27 00:26:13;;;;;;;10.75;3.33;;;;;;;;;;5005954;28;20066;-77
2022/12/27 00:28:38;;;;;;;7.13;3.38;;;;;;;;;;5004388;28;20021;-75
2022/12/27 00:31:07;;;;;;;8.70;3.05;;;;;;;;;;5003329;28;20026;-78
2022/12/27 00:33:33;;;;;;;11.70;3.58;;;;;;;;;;5006280;28;20025;-77
2022/12/27 00:35:59;;;;;;;10.20;3.47;;;;;;;;;;5005182;28;20022;-78
2022/12/27 00:38:24;;;;;;;11.38;3.08;;;;;;;;;;5006470;28;21059;-77
2022/12/27 00:40:50;;;;;;;9.82;3.50;;;;;;;;;;5005888;28;20021;-77
2022/12/27 00:43:15;;;;;;;11.35;3.28;;;;;;;;;;5005086;28;20021;-77
2022/12/27 00:45:41;;;;;;;10.95;3.90;;;;;;;;;;5006652;28;20838;-78
2022/12/27 00:48:07;;;;;;;9.98;3.47;;;;;;;;;;5007561;28;20036;-78
2022/12/27 00:50:32;;;;;;;9.32;3.05;;;;;;;;;;5007343;28;20025;-78
2022/12/27 00:52:57;;;;;;;18.40;3.65;;;;;;;;;;5006039;28;20032;-77
2022/12/27 00:55:22;;;;;;;12.98;3.08;;;;;;;;;;5003719;28;20906;-78
2022/12/27 00:57:48;;;;;;;11.52;3.72;;;;;;;;;;5006138;28;20928;-78
2022/12/27 01:00:13;;;;;;;18.60;3.83;;;;;;;;;;5007951;28;20029;-78
2022/12/27 01:02:39;;;;;;;11.77;3.33;;;;;;;;;;5008040;28;20017;-79
2022/12/27 01:05:04;;;;;;;10.90;3.38;;;;;;;;;;5008015;28;20023;-78
2022/12/27 01:07:30;;;;;;;7.95;3.25;;;;;;;;;;5007339;28;20883;-78
2022/12/27 01:09:55;;;;;;;10.68;3.45;;;;;;;;;;4996344;28;20005;-78
2022/12/27 01:12:20;;;;;;;6.72;3.40;;;;;;;;;;5007557;28;20032;-77
2022/12/27 01:14:45;;;;;;;9.48;3.50;;;;;;;;;;5006046;28;20794;-77
2022/12/27 01:17:11;;;;;;;9.85;3.53;;;;;;;;;;5007212;28;20090;-77
2022/12/27 01:19:37;;;;;;;8.10;3.40;;;;;;;;;;5006588;28;20121;-77
2022/12/27 01:22:02;;;;;;;11.32;3.60;;;;;;;;;;5007227;28;21026;-77
2022/12/27 01:24:27;;;;;;;14.77;3.17;;;;;;;;;;5004329;28;20017;-77
2022/12/27 01:26:53;;;;;;;9.77;3.30;;;;;;;;;;5003455;28;20025;-77
2022/12/27 01:29:18;;;;;;;10.73;3.15;;;;;;;;;;5007119;28;20839;-77
2022/12/27 01:31:43;;;;;;;12.23;3.88;;;;;;;;;;5007513;28;20798;-77
2022/12/27 01:34:08;;;;;;;9.25;3.05;;;;;;;;;;5008258;28;20179;-77
2022/12/27 01:36:34;;;;;;;8.25;3.35;;;;;;;;;;5008869;28;20856;-77
2022/12/27 01:38:59;;;;;;;17.60;4.15;;;;;;;;;;5009573;28;20023;-77
2022/12/27 01:44:31;;;;;;;7.72;3.88;;;;;;;;;;5009292;28;20096;-79
2022/12/27 01:46:57;;;;;;;18.88;4.03;;;;;;;;;;4999336;28;20119;-78
2022/12/27 01:49:22;;;;;;;6.65;3.63;;;;;;;;;;5006612;28;20028;-78
2022/12/27 01:51:47;;;;;;;11.70;4.30;;;;;;;;;;5004539;28;20079;-78
2022/12/27 01:54:12;;;;;;;14.88;3.40;;;;;;;;;;5007621;28;20017;-78
2022/12/27 01:56:38;;;;;;;9.55;3.80;;;;;;;;;;5009551;28;20040;-79
2022/12/27 01:59:05;;;;;;;9.52;4.18;;;;;;;;;;5004093;28;20048;-80
2022/12/27 02:01:36;;;;;;;10.23;2.97;;;;;;;;;;5010306;28;20132;-79
2022/12/27 02:04:07;;;;;;;12.35;3.78;;;;;;;;;;5000029;28;20033;-78
2022/12/27 02:06:33;;;;;;;8.02;3.50;;;;;;;;;;4999764;28;20109;-78
2022/12/27 02:09:02;;;;;;;8.10;3.05;;;;;;;;;;5001131;28;20135;-78
2022/12/27 02:14:14;;;;;;;7.75;2.75;;;;;;;;;;5009564;28;20032;-77
2022/12/27 02:16:40;;;;;;;6.65;2.95;;;;;;;;;;5010697;28;20032;-76
2022/12/27 02:19:09;;;;;;;11.98;3.35;;;;;;;;;;5008611;28;20206;-76
2022/12/27 02:21:37;;;;;;;12.93;3.60;;;;;;;;;;5009239;28;20036;-77
2022/12/27 02:24:10;;;;;;;11.15;3.95;;;;;;;;;;5009353;28;20024;-78
2022/12/27 02:26:38;;;;;;;6.38;2.78;;;;;;;;;;5004334;28;20025;-77
2022/12/27 02:29:14;;;;;;;10.13;3.50;;;;;;;;;;5009640;28;20013;-76
2022/12/27 02:31:39;;;;;;;18.13;4.15;;;;;;;;;;5009876;28;20937;-76
2022/12/27 02:34:09;;;;;;;13.88;3.67;;;;;;;;;;5001030;28;20025;-78
2022/12/27 02:36:36;;;;;;;12.57;3.88;;;;;;;;;;5006359;28;20025;-77
2022/12/27 02:39:01;;;;;;;14.02;3.88;;;;;;;;;;4994591;28;20106;-76
2022/12/27 02:55:26;;;;;;;9.32;3.20;;;;;;;;;;5002570;28;20852;-77
2022/12/27 02:58:12;;;;;;;12.18;4.03;;;;;;;;;;5017504;28;20024;-76
2022/12/27 03:03:43;;;;;;;;;;;;;;;;;;5007678;28;20410;-78
2022/12/27 03:08:56;;;;;;;16.53;4.20;;;;;;;;;;5010097;28;20801;-80
2022/12/27 03:16:57;;;;;;;;;;;;;;;;;;5009114;28;19916;-78
2022/12/27 03:25:28;;;;;;;12.88;4.45;;;;;;;;;;5016609;28;20789;-78
2022/12/27 03:39:39;;;;;;;7.97;3.95;;;;;;;;;;5017198;28;20055;-79
2022/12/27 03:44:51;;;;;;;7.38;3.78;;;;;;;;;;5020821;28;20868;-76
2022/12/27 03:47:33;;;;;;;12.60;4.00;;;;;;;;;;5023189;28;20016;-76
2022/12/27 03:50:10;;;;;;;12.70;3.50;;;;;;;;;;5015464;28;20884;-77
2022/12/27 03:52:40;;;;;;;10.48;3.80;;;;;;;;;;5015891;28;20020;-77
2022/12/27 03:55:06;;;;;;;10.70;3.15;;;;;;;;;;5023187;28;20021;-77
2022/12/27 03:57:31;;;;;;;8.23;3.72;;;;;;;;;;5025716;28;20021;-76
2022/12/27 03:59:56;;;;;;;10.13;3.72;;;;;;;;;;5026799;28;20893;-79
2022/12/27 04:02:22;;;;;;;10.23;4.25;;;;;;;;;;5025035;28;20135;-78
2022/12/27 04:04:47;;;;;;;9.85;4.35;;;;;;;;;;5027108;28;20020;-78
2022/12/27 04:07:13;;;;;;;13.27;4.05;;;;;;;;;;5029448;28;20858;-78
2022/12/27 04:36:58;;;;;;;11.60;3.88;;;;;;;;;;5044801;28;20283;-79
2022/12/27 04:39:23;;;;;;;11.88;3.88;;;;;;;;;;5045208;28;20029;-78
2022/12/27 04:54:55;;;;;;;10.77;4.13;;;;;;;;;;5037794;28;20032;-78
2022/12/27 04:55:54;;;;;;;8.40;4.35;;;;;;;;;;5046224;28;20079;-76
2022/12/27 04:58:19;;;;;;;12.07;4.18;;;;;;;;;;5044446;28;20033;-79
2022/12/27 05:03:28;;;;;;;11.07;3.97;;;;;;;;;;5044668;28;20108;-78
2022/12/27 05:05:54;;;;;;;11.85;4.60;;;;;;;;;;5045647;28;20009;-78
2022/12/27 05:14:00;;;;;;;;;;;;;;;;;;5031278;28;20024;-78
2022/12/27 05:16:34;;;;;;;19.30;5.55;;;;;;;;;;5024790;28;19905;-80
2022/12/27 05:18:59;;;;;;;;;;;;;;;;;;5032508;28;20750;-78
2022/12/27 05:21:25;;;;;;;15.68;5.00;;;;;;;;;;5026765;28;20717;-76
2022/12/27 05:26:34;;;;;;;14.43;4.60;;;;;;;;;;5030660;28;20843;-78
2022/12/27 05:28:59;;;;;;;9.20;4.00;;;;;;;;;;5028643;28;20029;-76
2022/12/27 05:31:26;;;;;;;13.55;3.95;;;;;;;;;;5021540;28;20831;-77
2022/12/27 05:33:51;;;;;;;10.60;4.40;;;;;;;;;;5022949;28;20916;-77
2022/12/27 05:36:17;;;;;;;8.98;4.47;;;;;;;;;;5024648;28;20021;-79
2022/12/27 05:38:43;;;;;;;6.72;4.00;;;;;;;;;;5025590;28;20017;-79
2022/12/27 05:41:08;;;;;;;7.35;3.80;;;;;;;;;;5024767;28;20839;-78
2022/12/27 05:43:33;;;;;;;14.25;3.75;;;;;;;;;;5021563;28;20029;-78
2022/12/27 05:46:03;;;;;;;12.70;4.25;;;;;;;;;;5020434;28;20031;-78
2022/12/27 05:48:28;;;;;;;9.45;3.88;;;;;;;;;;5013053;28;20061;-76
2022/12/27 05:50:53;;;;;;;14.88;4.20;;;;;;;;;;5008509;28;20114;-77
2022/12/27 05:53:18;;;;;;;10.98;3.95;;;;;;;;;;5014110;28;20032;-77
2022/12/27 05:55:44;;;;;;;10.57;4.40;;;;;;;;;;5012157;28;20009;-76
2022/12/27 05:58:09;;;;;;;11.20;3.67;;;;;;;;;;5004202;28;20808;-78
2022/12/27 06:00:34;;;;;;;11.82;4.20;;;;;;;;;;5007785;28;20932;-78
2022/12/27 06:03:00;;;;;;;15.75;3.85;;;;;;;;;;5011073;28;20136;-78
2022/12/27 06:05:26;;;;;;;9.70;4.00;;;;;;;;;;5001739;28;20044;-78
2022/12/27 06:07:51;;;;;;;12.57;3.80;;;;;;;;;;5010605;28;20033;-78
2022/12/27 06:10:16;;;;;;;11.65;3.92;;;;;;;;;;5010295;28;20253;-77
2022/12/27 06:12:41;;;;;;;7.28;3.78;;;;;;;;;;5011203;28;20029;-77
2022/12/27 06:15:07;;;;;;;8.40;3.65;;;;;;;;;;5012814;28;20543;-77
2022/12/27 06:17:32;;;;;;;11.63;3.70;;;;;;;;;;5012722;28;20805;-78
2022/12/27 06:19:57;;;;;;;12.20;4.10;;;;;;;;;;5011835;28;20882;-77
2022/12/27 06:22:23;;;;;;;7.15;3.70;;;;;;;;;;5008060;28;20036;-77
2022/12/27 06:24:48;;;;;;;10.50;3.50;;;;;;;;;;5008192;28;20873;-77
2022/12/27 06:27:13;;;;;;;12.00;3.88;;;;;;;;;;5006941;28;20835;-76
2022/12/27 06:29:39;;;;;;;11.77;3.90;;;;;;;;;;5010065;28;20051;-75
2022/12/27 06:32:04;;;;;;;10.35;3.78;;;;;;;;;;5007704;28;20125;-76
2022/12/27 06:34:29;;;;;;;8.40;3.85;;;;;;;;;;5009337;28;20947;-75
2022/12/27 06:36:55;;;;;;;18.40;4.70;;;;;;;;;;5012874;28;20024;-75
2022/12/27 06:39:20;;;;;;;11.32;3.92;;;;;;;;;;5014431;28;20538;-79
2022/12/27 06:41:45;;;;;;;21.42;4.55;;;;;;;;;;5010710;28;20063;-76
2022/12/27 06:44:10;;;;;;;15.15;4.70;;;;;;;;;;5007309;28;20010;-76
2022/12/27 06:46:36;;;;;;;15.23;4.68;;;;;;;;;;5009221;28;20097;-76
2022/12/27 06:49:02;;;;;;;15.25;5.18;;;;;;;;;;5007639;28;20056;-77
2022/12/27 06:51:27;;;;;;;9.68;4.50;;;;;;;;;;5009470;28;20021;-77
2022/12/27 06:53:52;;;;;;;11.52;5.47;;;;;;;;;;5008529;28;20028;-76
2022/12/27 06:56:19;;;;;;;12.00;4.80;;;;;;;;;;4996740;28;20779;-77
2022/12/27 06:58:45;;;;;;;8.60;4.13;;;;;;;;;;5007463;28;20135;-77
2022/12/27 07:01:10;;;;;;;9.30;5.22;;;;;;;;;;4997421;28;20139;-78
2022/12/27 07:03:35;;;;;;;14.27;5.18;;;;;;;;;;5000476;28;20027;-74
2022/12/27 07:06:04;;;;;;;12.52;4.65;;;;;;;;;;5008035;28;20066;-76
2022/12/27 07:08:30;;;;;;;9.05;5.13;;;;;;;;;;5007209;28;20071;-77
2022/12/27 07:11:06;;;;;;;9.57;4.88;;;;;;;;;;5007616;28;20870;-77
2022/12/27 07:13:51;;;;;;;11.00;4.40;;;;;;;;;;5007837;28;20041;-76
2022/12/27 07:16:18;;;;;;;13.10;3.90;;;;;;;;;;5006474;28;20867;-76
2022/12/27 07:18:43;;;;;;;17.17;4.65;;;;;;;;;;5008133;28;20020;-77
2022/12/27 07:21:10;;;;;;;16.55;4.35;;;;;;;;;;4999705;28;20041;-76
2022/12/27 07:23:35;;;;;;;8.88;4.72;;;;;;;;;;5000973;28;20108;-77
2022/12/27 07:26:08;;;;;;;11.60;5.07;;;;;;;;;;5007618;28;20024;-76
2022/12/27 07:28:33;;;;;;;11.15;5.00;;;;;;;;;;5009662;28;20017;-76
2022/12/27 07:30:58;;;;;;;8.98;5.32;;;;;;;;;;5009165;28;20832;-76
2022/12/27 07:33:24;;;;;;;13.30;6.32;;;;;;;;;;5009178;28;20031;-76
2022/12/27 07:35:55;;;;;;;13.93;5.10;;;;;;;;;;5007705;28;20048;-76
2022/12/27 07:38:21;;;;;;;15.05;5.32;;;;;;;;;;5010511;28;20025;-77
2022/12/27 07:40:46;;;;;;;16.75;5.22;;;;;;;;;;5003165;28;20088;-75
2022/12/27 07:43:11;;;;;;;15.82;5.78;;;;;;;;;;5005751;28;20988;-74
2022/12/27 07:45:36;;;;;;;14.68;5.35;;;;;;;;;;5007578;28;20831;-76
2022/12/27 07:48:01;;;;;;;19.33;7.28;;;;;;;;;;5008557;28;20071;-75
2022/12/27 07:50:27;;;;;;;16.65;6.05;;;;;;;;;;5008971;28;20035;-75
2022/12/27 07:52:52;;;;;;;16.73;5.95;;;;;;;;;;5006713;28;20770;-75
2022/12/27 07:55:17;;;;;;;14.23;6.10;;;;;;;;;;5003627;28;20431;-75
2022/12/27 07:57:42;;;;;;;18.42;5.18;;;;;;;;;;5004835;28;20116;-76
2022/12/27 08:00:08;;;;;;;11.50;5.18;;;;;;;;;;5008742;28;20976;-78
2022/12/27 08:02:33;;;;;;;11.55;5.22;;;;;;;;;;5009806;28;20132;-75
2022/12/27 08:04:58;;;;;;;11.48;4.85;;;;;;;;;;5008795;28;20055;-75
2022/12/27 08:07:24;;;;;;;14.30;5.25;;;;;;;;;;5007396;28;20127;-71
2022/12/27 08:09:49;;;;;;;10.57;4.00;;;;;;;;;;5007739;28;20120;-73
2022/12/27 08:12:15;;;;;;;10.60;4.80;;;;;;;;;;5008044;28;20954;-74
2022/12/27 08:14:40;;;;;;;10.30;3.97;;;;;;;;;;5007303;28;20028;-74
2022/12/27 08:17:20;;;;;;;15.10;4.70;;;;;;;;;;5007255;28;20095;-76
2022/12/27 08:19:45;;;;;;;13.30;4.32;;;;;;;;;;4998305;28;20017;-74
2022/12/27 08:22:11;;;;;;;13.00;4.53;;;;;;;;;;5007461;28;20043;-75
2022/12/27 08:24:37;;;;;;;15.35;4.32;;;;;;;;;;5007035;28;20732;-75
2022/12/27 08:27:02;;;;;;;15.77;4.40;;;;;;;;;;5007644;28;20119;-74
2022/12/27 08:29:28;;;;;;;17.60;5.25;;;;;;;;;;5007319;28;21034;-75
2022/12/27 08:31:53;;;;;;;9.90;4.63;;;;;;;;;;5003456;28;20085;-76
2022/12/27 08:34:18;;;;;;;10.77;4.35;;;;;;;;;;5006905;28;20031;-75
2022/12/27 08:36:43;;;;;;;12.70;3.95;;;;;;;;;;5000275;28;20017;-75
2022/12/27 08:39:10;;;;;;;14.35;4.80;;;;;;;;;;5007434;28;20012;-75
2022/12/27 08:41:36;;;;;;;12.65;3.67;;;;;;;;;;5007282;28;20012;-74
2022/12/27 08:44:01;;;;;;;8.25;3.95;;;;;;;;;;4997513;28;20028;-75
2022/12/27 08:46:26;;;;;;;13.30;4.57;;;;;;;;;;5007608;28;20017;-75
2022/12/27 08:48:51;;;;;;;6.10;3.42;;;;;;;;;;5006425;28;20053;-74
2022/12/27 08:51:17;;;;;;;7.60;3.17;;;;;;;;;;5006949;28;20123;-75
2022/12/27 08:53:43;;;;;;;10.73;3.67;;;;;;;;;;5006376;28;20017;-74
2022/12/27 08:56:08;;;;;;;8.27;3.83;;;;;;;;;;5005266;28;20080;-72
2022/12/27 08:58:33;;;;;;;7.38;3.60;;;;;;;;;;4995023;28;20045;-75
2022/12/27 09:01:08;;;;;;;15.65;4.38;;;;;;;;;;5003709;28;20799;-74
2022/12/27 09:03:34;;;;;;;6.82;3.38;;;;;;;;;;5007276;28;20127;-75
2022/12/27 09:06:06;;;;;;;14.18;3.70;;;;;;;;;;5006193;28;20934;-75
2022/12/27 09:08:31;;;;;;;10.35;3.95;;;;;;;;;;5004803;28;20033;-75
2022/12/27 09:11:05;;;;;;;16.05;4.15;;;;;;;;;;5010416;28;20025;-75
2022/12/27 09:13:30;;;;;;;11.50;3.42;;;;;;;;;;5001829;28;20075;-75
2022/12/27 09:15:56;;;;;;;8.60;3.80;;;;;;;;;;5009646;28;20924;-75
2022/12/27 09:18:21;;;;;;;10.57;3.92;;;;;;;;;;5009472;28;20867;-74
2022/12/27 09:20:46;;;;;;;7.50;3.50;;;;;;;;;;5009547;28;20021;-74
2022/12/27 09:23:11;;;;;;;11.40;4.22;;;;;;;;;;5007802;28;20048;-73
2022/12/27 09:25:36;;;;;;;15.52;4.07;;;;;;;;;;5016109;28;20095;-75
2022/12/27 09:28:02;;;;;;;12.80;3.03;;;;;;;;;;5019460;28;20140;-75
2022/12/27 09:30:28;;;;;;;9.85;3.40;;;;;;;;;;5012148;28;20874;-75
2022/12/27 09:32:53;;;;;;;8.07;3.25;;;;;;;;;;5011408;28;21046;-75
2022/12/27 09:35:19;;;;;;;7.35;3.17;;;;;;;;;;5008459;28;20022;-73
2022/12/27 09:37:44;;;;;;;6.97;3.03;;;;;;;;;;5001376;28;20456;-75
2022/12/27 09:40:13;;;;;;;7.32;3.30;;;;;;;;;;4998818;28;20014;-73
2022/12/27 09:42:44;;;;;;;9.77;3.45;;;;;;;;;;4999063;28;20373;-74
2022/12/27 09:45:09;;;;;;;7.72;2.65;;;;;;;;;;5010712;28;20032;-74
2022/12/27 09:47:37;;;;;;;12.02;2.97;;;;;;;;;;5012602;28;20025;-75
2022/12/27 09:50:05;;;;;;;10.80;3.30;;;;;;;;;;5013296;28;20720;-74
2022/12/27 09:52:36;;;;;;;10.85;3.28;;;;;;;;;;5011872;28;20044;-74
2022/12/27 09:55:01;;;;;;;10.85;3.20;;;;;;;;;;5010235;28;20032;-73
2022/12/27 09:57:37;;;;;;;15.88;3.33;;;;;;;;;;5009708;28;20013;-74
2022/12/27 10:00:05;;;;;;;9.98;3.28;;;;;;;;;;5004067;28;20025;-75
2022/12/27 10:02:32;;;;;;;11.65;3.47;;;;;;;;;;5006601;28;20028;-74
2022/12/27 10:04:58;;;;;;;7.68;3.17;;;;;;;;;;5008823;28;20025;-74
2022/12/27 10:07:38;;;;;;;9.80;2.95;;;;;;;;;;5009626;28;20021;-79
2022/12/27 10:10:22;;;;;;;12.27;3.55;;;;;;;;;;5012236;28;20028;-74
2022/12/27 10:12:53;;;;;;;7.45;3.25;;;;;;;;;;5008364;28;20936;-76
2022/12/27 10:15:24;;;;;;;10.13;3.05;;;;;;;;;;5025927;28;20032;-64
2022/12/27 10:18:08;;;;;;;9.00;3.42;;;;;;;;;;5017310;28;20135;-72
2022/12/27 10:20:36;;;;;;;7.15;3.90;;;;;;;;;;5009555;28;20035;-68
2022/12/27 10:23:04;;;;;;;10.48;4.95;;;;;;;;;;4999498;28;20025;-69
2022/12/27 10:25:30;;;;;;;15.40;4.28;;;;;;;;;;5013314;28;20866;-67
2022/12/27 10:27:59;;;;;;;9.80;3.30;;;;;;;;;;5009824;28;20110;-71
2022/12/27 10:30:27;;;;;;;10.27;3.38;;;;;;;;;;5008508;28;20082;-67
2022/12/27 10:32:52;;;;;;;12.80;3.05;;;;;;;;;;5008018;28;20887;-66
2022/12/27 10:35:19;;;;;;;5.25;2.72;;;;;;;;;;5005024;28;20043;-66
2022/12/27 10:37:45;;;;;;;17.67;3.10;;;;;;;;;;5001403;28;20144;-65
2022/12/27 10:40:15;;;;;;;11.68;3.95;;;;;;;;;;5009120;28;20250;-66
2022/12/27 10:42:44;;;;;;;8.85;3.85;;;;;;;;;;5007755;28;20091;-66
2022/12/27 10:45:28;;;;;;;9.60;2.65;;;;;;;;;;5007654;28;20021;-67
2022/12/27 10:47:54;;;;;;;7.10;2.92;;;;;;;;;;5008549;28;20036;-67
2022/12/27 10:50:20;;;;;;;7.78;2.78;;;;;;;;;;5025287;28;20037;-64
2022/12/27 10:52:45;;;;;;;9.68;3.00;;;;;;;;;;5007910;28;20040;-68
2022/12/27 10:55:29;;;;;;;7.90;2.85;;;;;;;;;;4992721;28;20025;-68
2022/12/27 10:57:55;;;;;;;11.15;2.65;;;;;;;;;;4995813;28;20107;-68
2022/12/27 11:00:21;;;;;;;5.65;2.60;;;;;;;;;;5008283;28;20052;-67
2022/12/27 11:02:54;;;;;;;7.40;3.38;;;;;;;;;;5009695;28;20432;-67
2022/12/27 11:05:22;;;;;;;8.60;2.53;;;;;;;;;;5005543;28;20017;-71
2022/12/27 11:07:47;;;;;;;7.45;3.38;;;;;;;;;;4992694;28;20026;-68
2022/12/27 11:10:17;;;;;;;7.30;2.83;;;;;;;;;;5002524;28;20107;-67
2022/12/27 11:12:53;;;;;;;6.30;2.85;;;;;;;;;;4997774;28;20024;-66
2022/12/27 11:15:19;;;;;;;6.72;2.78;;;;;;;;;;4998422;28;20032;-67
2022/12/27 11:17:57;;;;;;;10.93;2.65;;;;;;;;;;5008883;28;20856;-66
2022/12/27 11:20:30;;;;;;;7.53;2.45;;;;;;;;;;4999674;28;20127;-67
2022/12/27 11:23:03;;;;;;;6.45;2.45;;;;;;;;;;5006199;28;20782;-69
2022/12/27 11:25:29;;;;;;;6.28;3.03;;;;;;;;;;5007629;28;20025;-68
2022/12/27 11:28:19;;;;;;;4.25;2.28;;;;;;;;;;5006982;28;20009;-68
2022/12/27 11:30:52;;;;;;;5.03;1.98;;;;;;;;;;5007841;28;20025;-71
2022/12/27 11:33:19;;;;;;;7.95;2.40;;;;;;;;;;5007441;28;20801;-69
2022/12/27 11:35:47;;;;;;;8.43;3.22;;;;;;;;;;5006759;28;20017;-69
2022/12/27 11:38:18;;;;;;;13.20;3.40;;;;;;;;;;5006577;28;20009;-69
2022/12/27 11:40:43;;;;;;;8.88;3.03;;;;;;;;;;5009878;28;20100;-68
2022/12/27 11:43:10;;;;;;;5.97;3.08;;;;;;;;;;5006366;28;20025;-68
2022/12/27 11:45:47;;;;;;;7.15;3.08;;;;;;;;;;5006268;28;20023;-68
2022/12/27 11:48:32;;;;;;;15.45;2.97;;;;;;;;;;4993697;28;20032;-68
2022/12/27 11:51:15;;;;;;;6.00;2.63;;;;;;;;;;5003496;28;20176;-69
2022/12/27 11:53:46;;;;;;;9.52;3.53;;;;;;;;;;4996288;28;20013;-69
2022/12/27 11:56:16;;;;;;;13.52;3.15;;;;;;;;;;4993718;28;20849;-69
2022/12/27 11:58:51;;;;;;;8.65;3.22;;;;;;;;;;5001603;28;20067;-68
2022/12/27 12:01:16;;;;;;;;;;;;;;;;;;5000149;28;20861;-68
2022/12/27 12:03:55;;;;;;;8.60;3.17;;;;;;;;;;5006873;28;19908;-66
2022/12/27 12:06:26;;;;;;;19.60;3.05;;;;;;;;;;5007219;28;20031;-67
2022/12/27 12:09:01;;;;;;;12.82;3.40;;;;;;;;;;5002002;28;20128;-69
2022/12/27 12:11:41;;;;;;;11.02;3.13;;;;;;;;;;5006809;28;20870;-69
2022/12/27 12:14:26;;;;;;;12.90;3.10;;;;;;;;;;5007616;28;20020;-68
2022/12/27 12:17:00;;;;;;;5.75;2.75;;;;;;;;;;5005251;28;20040;-69
2022/12/27 12:19:34;;;;;;;10.00;3.28;;;;;;;;;;5004587;28;20021;-69
2022/12/27 12:22:16;;;;;;;6.03;3.08;;;;;;;;;;5005902;28;20028;-68
2022/12/27 12:24:59;;;;;;;11.20;5.68;;;;;;;;;;5002320;28;20033;-67
2022/12/27 12:27:40;;;;;;;12.67;4.63;;;;;;;;;;5002840;28;20902;-67
2022/12/27 12:30:19;;;;;;;18.80;10.80;;;;;;;;;;4995061;28;20021;-69
2022/12/27 12:32:50;;;;;;;11.18;4.10;;;;;;;;;;5004561;28;20874;-69
2022/12/27 12:35:16;;;;;;;17.27;3.97;;;;;;;;;;5006613;28;20025;-67
2022/12/27 12:37:56;;;;;;;11.77;2.88;;;;;;;;;;5006350;28;21029;-67
2022/12/27 12:40:40;;;;;;;13.68;3.35;;;;;;;;;;5002289;28;20021;-67
2022/12/27 12:43:16;;;;;;;9.07;3.63;;;;;;;;;;5007406;28;20029;-67
2022/12/27 12:46:00;;;;;;;8.98;3.20;;;;;;;;;;5005664;28;20029;-68
2022/12/27 12:48:28;;;;;;;7.35;3.78;;;;;;;;;;5006935;28;20567;-68
2022/12/27 12:50:54;;;;;;;6.90;3.35;;;;;;;;;;5007158;28;20874;-68
2022/12/27 12:53:25;;;;;;;14.90;3.33;;;;;;;;;;5007689;28;20064;-68
2022/12/27 12:56:05;;;;;;;12.32;3.40;;;;;;;;;;5007758;28;20020;-68
2022/12/27 12:58:31;;;;;;;5.72;3.17;;;;;;;;;;5006977;28;20021;-70
2022/12/27 13:00:56;;;;;;;9.77;3.00;;;;;;;;;;5006620;28;20925;-69
2022/12/27 13:03:40;;;;;;;11.77;3.72;;;;;;;;;;5004757;28;20895;-69
2022/12/27 13:06:17;;;;;;;10.40;3.75;;;;;;;;;;4991587;28;20513;-68
2022/12/27 13:09:02;;;;;;;13.50;3.20;;;;;;;;;;5009512;28;20044;-68
2022/12/27 13:11:31;;;;;;;8.05;3.38;;;;;;;;;;5004792;28;20087;-69
2022/12/27 13:14:05;;;;;;;8.50;3.22;;;;;;;;;;5007806;28;20954;-69
2022/12/27 13:16:49;;;;;;;11.68;3.40;;;;;;;;;;5007813;28;20037;-69
2022/12/27 13:19:31;;;;;;;9.90;3.28;;;;;;;;;;5006740;28;20848;-69
2022/12/27 13:22:02;;;;;;;9.95;3.30;;;;;;;;;;5006063;28;20136;-70
2022/12/27 13:24:41;;;;;;;11.05;3.13;;;;;;;;;;5009664;28;20029;-71
2022/12/27 13:27:34;;;;;;;9.43;3.45;;;;;;;;;;5005633;28;20039;-66
2022/12/27 13:29:59;;;;;;;11.40;3.67;;;;;;;;;;5011686;28;20821;-67
2022/12/27 13:32:29;;;;;;;10.52;3.63;;;;;;;;;;5007133;28;20025;-69
2022/12/27 13:34:58;;;;;;;8.90;3.38;;;;;;;;;;5007097;28;20025;-68
2022/12/27 13:37:29;;;;;;;11.18;3.20;;;;;;;;;;5004040;28;20025;-66
2022/12/27 13:40:16;;;;;;;19.90;3.55;;;;;;;;;;5006018;28;20017;-66
2022/12/27 13:42:41;;;;;;;13.20;3.78;;;;;;;;;;4996869;28;20131;-67
2022/12/27 13:45:20;;;;;;;7.68;3.13;;;;;;;;;;5005599;28;21036;-73
2022/12/27 13:48:01;;;;;;;9.48;3.03;;;;;;;;;;5006886;28;20420;-74
2022/12/27 13:50:29;;;;;;;11.30;3.60;;;;;;;;;;5005354;28;20017;-70
2022/12/27 13:52:54;;;;;;;19.10;3.55;;;;;;;;;;5006424;28;20052;-68
2022/12/27 13:55:32;;;;;;;9.55;3.28;;;;;;;;;;5007425;28;20924;-68
2022/12/27 13:58:15;;;;;;;6.28;3.35;;;;;;;;;;5011973;28;20090;-70
2022/12/27 14:00:53;;;;;;;7.55;3.17;;;;;;;;;;5013395;28;20036;-72
2022/12/27 14:03:31;;;;;;;11.65;3.50;;;;;;;;;;5014112;28;20493;-72
2022/12/27 14:06:15;;;;;;;7.25;2.85;;;;;;;;;;5015053;28;20060;-71
2022/12/27 14:08:57;;;;;;;5.85;2.67;;;;;;;;;;5010083;28;20017;-73
2022/12/27 14:11:28;;;;;;;4.85;2.60;;;;;;;;;;5006796;28;20029;-72
2022/12/27 14:13:55;;;;;;;5.85;2.72;;;;;;;;;;5010192;28;20013;-69
2022/12/27 14:16:23;;;;;;;9.90;3.22;;;;;;;;;;5005285;28;20032;-69
2022/12/27 14:18:54;;;;;;;9.15;2.95;;;;;;;;;;5015946;28;20052;-70
2022/12/27 14:21:43;;;;;;;8.98;3.05;;;;;;;;;;5009370;28;20045;-74
2022/12/27 14:24:08;;;;;;;9.68;3.17;;;;;;;;;;5011476;28;20037;-69
2022/12/27 14:26:49;;;;;;;6.70;3.00;;;;;;;;;;5010042;28;20044;-69
2022/12/27 14:29:30;;;;;;;7.22;3.08;;;;;;;;;;5007004;28;21037;-69
2022/12/27 14:32:06;;;;;;;9.27;3.13;;;;;;;;;;5007260;28;20087;-70
2022/12/27 14:34:31;;;;;;;5.80;2.38;;;;;;;;;;5008071;28;20032;-69
2022/12/27 14:37:09;;;;;;;12.23;3.10;;;;;;;;;;5007604;28;20017;-69
2022/12/27 14:39:40;;;;;;;6.68;2.75;;;;;;;;;;5007708;28;20082;-68
2022/12/27 14:42:23;;;;;;;7.45;2.78;;;;;;;;;;5006815;28;20017;-70
2022/12/27 14:45:08;;;;;;;7.33;2.67;;;;;;;;;;5007959;28;20029;-70
2022/12/27 14:47:33;;;;;;;6.72;2.75;;;;;;;;;;5006515;28;20803;-69
2022/12/27 14:50:17;;;;;;;8.17;2.50;;;;;;;;;;5004502;28;20047;-70
2022/12/27 14:53:01;;;;;;;8.65;3.13;;;;;;;;;;5008424;28;20271;-70
2022/12/27 14:55:35;;;;;;;6.17;3.00;;;;;;;;;;5008448;28;20853;-70
2022/12/27 14:58:01;;;;;;;;;;;;;;;;;;5003665;28;20267;-70
2022/12/27 15:00:28;;;;;;;8.57;3.10;;;;;;;;;;5006010;28;19912;-70
2022/12/27 15:03:12;;;;;;;8.20;2.40;;;;;;;;;;5008371;28;20032;-70
2022/12/27 15:06:10;;;;;;;13.05;3.15;;;;;;;;;;5006178;28;21452;-71
2022/12/27 15:08:45;;;;;;;14.60;2.97;;;;;;;;;;4979276;28;20040;-70
2022/12/27 15:11:16;;;;;;;7.40;3.25;;;;;;;;;;5034516;28;20912;-70
2022/12/27 15:13:44;;;;;;;7.97;2.90;;;;;;;;;;5008235;28;20013;-70
2022/12/27 15:16:25;;;;;;;6.03;2.63;;;;;;;;;;5005979;28;20023;-70
2022/12/27 15:19:02;;;;;;;6.03;2.75;;;;;;;;;;5007477;28;20028;-70
2022/12/27 15:21:46;;;;;;;5.55;2.72;;;;;;;;;;5013250;28;20028;-70
2022/12/27 15:24:24;;;;;;;11.23;2.67;;;;;;;;;;5007255;28;20763;-70
2022/12/27 15:26:53;;;;;;;6.50;2.17;;;;;;;;;;5008334;28;20067;-70
2022/12/27 15:29:26;;;;;;;7.05;2.75;;;;;;;;;;5005895;28;20071;-70
2022/12/27 15:32:09;;;;;;;6.55;2.83;;;;;;;;;;5005946;28;20077;-71
2022/12/27 15:34:34;;;;;;;10.07;2.95;;;;;;;;;;5007932;28;20029;-71
2022/12/27 15:36:59;;;;;;;7.78;2.65;;;;;;;;;;5029602;28;20028;-70
2022/12/27 15:39:33;;;;;;;7.43;3.00;;;;;;;;;;5028795;28;20028;-70
2022/12/27 15:42:20;;;;;;;9.75;3.55;;;;;;;;;;5011300;28;20554;-69
2022/12/27 15:45:04;;;;;;;9.70;2.75;;;;;;;;;;5028950;28;20151;-69
2022/12/27 15:47:48;;;;;;;8.30;2.53;;;;;;;;;;5026334;28;20734;-69
2022/12/27 15:50:19;;;;;;;9.43;3.00;;;;;;;;;;5033713;28;20032;-69
2022/12/27 15:52:51;;;;;;;8.38;2.58;;;;;;;;;;5044280;28;20287;-69
2022/12/27 15:55:20;;;;;;;6.60;2.55;;;;;;;;;;5029163;28;20052;-69
2022/12/27 15:57:48;;;;;;;16.90;3.42;;;;;;;;;;5018058;28;20082;-69
2022/12/27 16:00:22;;;;;;;6.97;3.13;;;;;;;;;;5027057;28;20090;-69
2022/12/27 16:02:52;;;;;;;13.85;3.13;;;;;;;;;;5026541;28;20135;-69
2022/12/27 16:05:24;;;;;;;9.73;3.33;;;;;;;;;;5027323;28;20025;-69
2022/12/27 16:07:58;;;;;;;7.35;2.92;;;;;;;;;;5005096;28;20072;-69
2022/12/27 16:10:23;;;;;;;;;;;;;;;;;;5006408;28;20079;-69
2022/12/27 16:12:49;;;;;;;10.77;3.47;;;;;;;;;;5007006;28;19987;-69
2022/12/27 16:15:43;;;;;;;9.13;3.22;;;;;;;;;;5008773;28;20021;-69
2022/12/27 16:18:17;;;;;;;15.05;3.42;;;;;;;;;;5006767;28;20025;-68
2022/12/27 16:21:01;;;;;;;11.35;2.92;;;;;;;;;;5002225;28;20864;-67
2022/12/27 16:23:30;;;;;;;8.82;3.53;;;;;;;;;;5005996;28;20028;-75
2022/12/27 16:26:18;;;;;;;11.00;3.88;;;;;;;;;;5004311;28;20016;-70
2022/12/27 16:28:53;;;;;;;8.00;3.00;;;;;;;;;;4998926;28;20855;-68
2022/12/27 16:31:23;;;;;;;6.22;3.03;;;;;;;;;;5005456;28;20805;-68
2022/12/27 16:33:49;;;;;;;9.57;3.58;;;;;;;;;;5004415;28;21098;-72
2022/12/27 16:36:17;;;;;;;9.05;3.15;;;;;;;;;;5004956;28;20013;-78